createdAt,value
2024-02-28T00:00:41.680Z,3.48
2024-02-28T00:03:08.224Z,3.45
2024-02-28T00:05:34.788Z,3.43
2024-02-28T00:08:01.218Z,3.39
2024-02-28T00:10:27.735Z,3.34
2024-02-28T00:13:00.921Z,3.32
2024-02-28T00:15:27.472Z,3.29
2024-02-28T00:17:55.106Z,3.27
2024-02-28T00:20:21.709Z,3.25
2024-02-28T00:22:48.240Z,3.24
2024-02-28T00:25:15.012Z,3.20
2024-02-28T00:27:41.564Z,3.16
2024-02-28T00:30:08.392Z,3.12
2024-02-28T00:32:35.077Z,3.10
2024-02-28T00:35:01.706Z,3.04
2024-02-28T00:37:28.241Z,3.03
2024-02-28T00:39:54.769Z,3.01
2024-02-28T00:42:21.326Z,2.97
2024-02-28T00:44:47.733Z,2.95
2024-02-28T00:47:14.163Z,2.97
2024-02-28T00:49:41.335Z,2.93
2024-02-28T00:52:07.745Z,2.92
2024-02-28T00:54:34.313Z,2.94
2024-02-28T00:57:01.015Z,2.93
2024-02-28T00:59:27.649Z,2.96
2024-02-28T01:01:54.205Z,2.98
2024-02-28T01:04:20.613Z,2.98
2024-02-28T01:06:47.515Z,2.98
2024-02-28T01:09:14.153Z,2.99
2024-02-28T01:11:40.712Z,3.00
2024-02-28T01:14:07.152Z,3.02
2024-02-28T01:16:33.666Z,3.04
2024-02-28T01:19:00.279Z,3.07
2024-02-28T01:21:26.766Z,3.11
2024-02-28T01:23:53.180Z,3.16
2024-02-28T01:26:22.497Z,3.19
2024-02-28T01:28:49.931Z,3.20
2024-02-28T01:31:16.357Z,3.21
2024-02-28T01:33:43.076Z,3.23
2024-02-28T01:36:09.607Z,3.24
2024-02-28T01:38:36.012Z,3.25
2024-02-28T01:41:02.568Z,3.24
2024-02-28T01:43:28.963Z,3.27
2024-02-28T01:45:55.438Z,3.29
2024-02-28T01:48:21.956Z,3.29
2024-02-28T01:50:48.979Z,3.30
2024-02-28T01:53:16.234Z,3.34
2024-02-28T01:55:44.964Z,3.35
2024-02-28T01:58:12.171Z,3.37
2024-02-28T02:00:39.379Z,3.37
2024-02-28T02:03:06.064Z,3.40
2024-02-28T02:05:32.664Z,3.42
2024-02-28T02:07:59.951Z,3.40
2024-02-28T02:10:27.009Z,3.41
2024-02-28T02:12:53.547Z,3.42
2024-02-28T02:15:20.083Z,3.43
2024-02-28T02:17:46.558Z,3.44
2024-02-28T02:20:15.657Z,3.46
2024-02-28T02:22:42.163Z,3.46
2024-02-28T02:25:09.338Z,3.49
2024-02-28T02:27:35.886Z,3.50
2024-02-28T02:30:02.488Z,3.52
2024-02-28T02:32:29.785Z,3.52
2024-02-28T02:34:56.749Z,3.52
2024-02-28T02:37:23.163Z,3.54
2024-02-28T02:39:49.668Z,3.56
2024-02-28T02:42:16.668Z,3.58
2024-02-28T02:44:43.595Z,3.56
2024-02-28T02:47:10.456Z,3.55
2024-02-28T02:49:37.334Z,3.55
2024-02-28T02:52:03.796Z,3.55
2024-02-28T02:54:30.301Z,3.57
2024-02-28T02:56:56.747Z,3.59
2024-02-28T02:59:23.163Z,3.58
2024-02-28T03:01:50.993Z,3.59
2024-02-28T03:04:17.837Z,3.59
2024-02-28T03:06:44.271Z,3.58
2024-02-28T03:09:10.800Z,3.58
2024-02-28T03:11:37.510Z,3.59
2024-02-28T03:14:04.017Z,3.60
2024-02-28T03:16:30.457Z,3.57
2024-02-28T03:18:57.580Z,3.54
2024-02-28T03:21:24.169Z,3.52
2024-02-28T03:23:50.782Z,3.52
2024-02-28T03:26:17.263Z,3.51
2024-02-28T03:28:43.806Z,3.51
2024-02-28T03:31:10.415Z,3.53
2024-02-28T03:33:36.981Z,3.50
2024-02-28T03:36:03.724Z,3.51
2024-02-28T03:38:30.161Z,3.48
2024-02-28T03:40:56.618Z,3.47
2024-02-28T03:43:23.207Z,3.47
2024-02-28T03:45:51.181Z,3.46
2024-02-28T03:48:17.938Z,3.44
2024-02-28T03:50:44.480Z,3.43
2024-02-28T03:53:11.003Z,3.45
2024-02-28T03:55:38.831Z,3.47
2024-02-28T03:58:08.317Z,3.45
2024-02-28T04:00:35.160Z,3.45
2024-02-28T04:03:01.636Z,3.44
2024-02-28T04:05:28.070Z,3.43
2024-02-28T04:07:54.537Z,3.45
2024-02-28T04:10:21.180Z,3.45
2024-02-28T04:12:48.263Z,3.45
2024-02-28T04:15:16.180Z,3.47
2024-02-28T04:17:43.460Z,3.45
2024-02-28T04:20:14.004Z,3.45
2024-02-28T04:22:41.006Z,3.44
2024-02-28T04:25:09.626Z,3.49
2024-02-28T04:27:37.095Z,3.47
2024-02-28T04:30:04.854Z,3.46
2024-02-28T04:32:31.352Z,3.48
2024-02-28T04:34:57.832Z,3.46
2024-02-28T04:37:24.520Z,3.44
2024-02-28T04:39:51.053Z,3.43
2024-02-28T04:42:17.943Z,3.44
2024-02-28T04:44:44.485Z,3.44
2024-02-28T04:47:10.921Z,3.45
2024-02-28T04:49:39.211Z,3.46
2024-02-28T04:52:06.399Z,3.43
2024-02-28T04:54:32.989Z,3.42
2024-02-28T04:56:59.379Z,3.41
2024-02-28T04:59:25.927Z,3.42
2024-02-28T05:01:53.238Z,3.40
2024-02-28T05:04:20.389Z,3.38
2024-02-28T05:06:46.920Z,3.35
2024-02-28T05:09:13.718Z,3.36
2024-02-28T05:11:40.763Z,3.38
2024-02-28T05:14:07.196Z,3.38
2024-02-28T05:16:33.741Z,3.39
2024-02-28T05:19:00.439Z,3.40
2024-02-28T05:21:27.035Z,3.39
2024-02-28T05:23:53.534Z,3.37
2024-02-28T05:26:19.960Z,3.35
2024-02-28T05:28:47.041Z,3.31
2024-02-28T05:31:25.181Z,3.34
2024-02-28T05:33:53.460Z,3.34
2024-02-28T05:36:19.970Z,3.35
2024-02-28T05:38:46.460Z,3.35
2024-02-28T05:41:12.919Z,3.36
2024-02-28T05:43:39.650Z,3.33
2024-02-28T05:46:06.124Z,3.32
2024-02-28T05:48:32.815Z,3.34
2024-02-28T05:50:59.254Z,3.35
2024-02-28T05:53:27.883Z,3.34
2024-02-28T05:55:58.096Z,3.35
2024-02-28T05:58:26.217Z,3.34
2024-02-28T06:00:52.997Z,3.34
2024-02-28T06:03:19.675Z,3.36
2024-02-28T06:05:46.308Z,3.36
2024-02-28T06:08:12.925Z,3.38
2024-02-28T06:10:39.534Z,3.36
2024-02-28T06:13:06.089Z,3.37
2024-02-28T06:15:32.740Z,3.37
2024-02-28T06:18:01.476Z,3.38
2024-02-28T06:20:29.083Z,3.38
2024-02-28T06:22:55.586Z,3.37
2024-02-28T06:25:23.893Z,3.38
2024-02-28T06:27:50.797Z,3.39
2024-02-28T06:30:20.861Z,3.39
2024-02-28T06:32:47.470Z,3.40
2024-02-28T06:35:13.918Z,3.40
2024-02-28T06:37:40.403Z,3.40
2024-02-28T06:40:09.915Z,3.42
2024-02-28T06:42:37.522Z,3.42
2024-02-28T06:45:05.110Z,3.41
2024-02-28T06:47:33.605Z,3.42
2024-02-28T06:50:00.238Z,3.44
2024-02-28T06:52:26.736Z,3.44
2024-02-28T06:54:53.241Z,3.47
2024-02-28T06:57:19.907Z,3.47
2024-02-28T06:59:46.498Z,3.49
2024-02-28T07:02:13.044Z,3.49
2024-02-28T07:04:39.843Z,3.48
2024-02-28T07:07:06.788Z,3.49
2024-02-28T07:09:34.051Z,3.50
2024-02-28T07:12:01.969Z,3.52
2024-02-28T07:14:28.515Z,3.53
2024-02-28T07:16:55.826Z,3.54
2024-02-28T07:19:22.752Z,3.54
2024-02-28T07:21:49.248Z,3.54
2024-02-28T07:24:15.937Z,3.54
2024-02-28T07:26:42.990Z,3.58
2024-02-28T07:29:09.752Z,3.59
2024-02-28T07:31:36.287Z,3.61
2024-02-28T07:34:02.861Z,3.65
2024-02-28T07:36:29.816Z,3.63
2024-02-28T07:38:56.519Z,3.66
2024-02-28T07:41:23.129Z,3.70
2024-02-28T07:43:50.283Z,3.71
2024-02-28T07:46:16.776Z,3.73
2024-02-28T07:48:44.058Z,3.76
2024-02-28T07:51:10.912Z,3.81
2024-02-28T07:53:37.408Z,3.82
2024-02-28T07:56:04.354Z,3.85
2024-02-28T07:58:30.909Z,3.86
2024-02-28T08:00:57.629Z,3.91
2024-02-28T08:03:24.821Z,3.93
2024-02-28T08:05:51.269Z,3.96
2024-02-28T08:08:17.702Z,3.99
2024-02-28T08:10:46.442Z,4.01
2024-02-28T08:13:12.859Z,4.04
2024-02-28T08:15:39.392Z,4.02
2024-02-28T08:18:06.028Z,4.05
2024-02-28T08:20:32.491Z,4.10
2024-02-28T08:22:59.729Z,4.13
2024-02-28T08:25:26.332Z,4.14
2024-02-28T08:27:52.862Z,4.16
2024-02-28T08:30:19.416Z,4.16
2024-02-28T08:32:45.901Z,4.16
2024-02-28T08:35:12.359Z,4.20
2024-02-28T08:37:42.142Z,4.20
2024-02-28T08:40:09.554Z,4.18
2024-02-28T08:42:36.129Z,4.20
2024-02-28T08:45:04.335Z,4.20
2024-02-28T08:47:30.971Z,4.22
2024-02-28T08:49:57.446Z,4.26
2024-02-28T08:52:24.002Z,4.29
2024-02-28T08:54:50.625Z,4.30
2024-02-28T08:57:17.749Z,4.34
2024-02-28T08:59:44.176Z,4.39
2024-02-28T09:02:12.215Z,4.44
2024-02-28T09:04:38.729Z,4.50
2024-02-28T09:07:05.255Z,4.57
2024-02-28T09:09:35.104Z,4.61
2024-02-28T09:12:04.240Z,4.66
2024-02-28T09:14:30.988Z,4.71
2024-02-28T09:17:04.162Z,4.77
2024-02-28T09:19:31.549Z,4.79
2024-02-28T09:21:58.869Z,4.81
2024-02-28T09:24:25.797Z,4.87
2024-02-28T09:26:52.371Z,4.91
2024-02-28T09:29:19.013Z,4.97
2024-02-28T09:31:45.559Z,4.98
2024-02-28T09:34:12.221Z,5.05
2024-02-28T09:36:48.592Z,5.01
2024-02-28T09:39:18.262Z,5.03
2024-02-28T09:41:45.099Z,5.08
2024-02-28T09:44:12.185Z,5.05
2024-02-28T09:46:39.057Z,5.06
2024-02-28T09:49:08.337Z,5.11
2024-02-28T09:51:36.736Z,5.17
2024-02-28T09:54:05.222Z,5.24
2024-02-28T09:56:35.305Z,5.29
2024-02-28T09:59:04.104Z,5.37
2024-02-28T10:01:31.733Z,5.42
2024-02-28T10:04:01.826Z,5.37
2024-02-28T10:06:28.478Z,5.37
2024-02-28T10:08:54.988Z,5.39
2024-02-28T10:11:23.237Z,5.39
2024-02-28T10:13:50.466Z,5.41
2024-02-28T10:16:17.176Z,5.41
2024-02-28T10:18:44.956Z,5.41
2024-02-28T10:21:16.174Z,5.38
2024-02-28T10:23:42.666Z,5.38
2024-02-28T10:26:13.152Z,5.39
2024-02-28T10:28:44.760Z,5.39
2024-02-28T10:31:14.228Z,5.36
2024-02-28T10:33:42.915Z,5.35
2024-02-28T10:36:10.065Z,5.34
2024-02-28T10:38:39.775Z,5.34
2024-02-28T10:41:09.924Z,5.36
2024-02-28T10:43:40.794Z,5.35
2024-02-28T10:46:26.104Z,5.38
2024-02-28T10:48:56.956Z,5.37
2024-02-28T10:51:26.978Z,5.38
2024-02-28T10:54:07.310Z,5.41
2024-02-28T10:56:34.080Z,5.40
2024-02-28T10:59:00.721Z,5.43
2024-02-28T11:01:28.144Z,5.41
2024-02-28T11:03:55.723Z,5.43
2024-02-28T11:06:23.616Z,5.45
2024-02-28T11:08:54.354Z,5.43
2024-02-28T11:11:22.259Z,5.44
2024-02-28T11:13:55.430Z,5.46
2024-02-28T11:16:28.984Z,5.42
2024-02-28T11:18:55.687Z,5.40
2024-02-28T11:21:29.237Z,5.41
2024-02-28T11:24:00.683Z,5.45
2024-02-28T11:26:28.642Z,5.41
2024-02-28T11:28:56.262Z,5.37
2024-02-28T11:31:23.005Z,5.32
2024-02-28T11:33:49.567Z,5.32
2024-02-28T11:36:16.251Z,5.32
2024-02-28T11:38:42.861Z,5.32
2024-02-28T11:41:09.304Z,5.34
2024-02-28T11:43:49.910Z,5.36
2024-02-28T11:46:19.166Z,5.39
2024-02-28T11:48:46.617Z,5.36
2024-02-28T11:51:13.164Z,5.34
2024-02-28T11:53:39.622Z,5.36
2024-02-28T11:56:06.333Z,5.35
2024-02-28T11:58:32.798Z,5.34
2024-02-28T12:00:59.393Z,5.37
2024-02-28T12:03:26.771Z,5.40
2024-02-28T12:05:54.135Z,5.45
2024-02-28T12:08:21.222Z,5.49
2024-02-28T12:10:48.632Z,5.55
2024-02-28T12:13:23.986Z,5.52
2024-02-28T12:15:50.424Z,5.51
2024-02-28T12:18:17.140Z,5.56
2024-02-28T12:20:43.545Z,5.60
2024-02-28T12:23:10.333Z,5.62
2024-02-28T12:25:37.221Z,5.65
2024-02-28T12:28:04.064Z,5.66
2024-02-28T12:30:30.579Z,5.66
2024-02-28T12:32:57.348Z,5.63
2024-02-28T12:35:24.053Z,5.58
2024-02-28T12:37:50.456Z,5.59
2024-02-28T12:40:18.006Z,5.58
2024-02-28T12:42:44.821Z,5.59
2024-02-28T12:45:11.849Z,5.60
2024-02-28T12:47:38.425Z,5.63
2024-02-28T12:50:05.913Z,5.63
2024-02-28T12:52:32.408Z,5.62
2024-02-28T12:54:58.978Z,5.62
2024-02-28T12:57:25.511Z,5.61
2024-02-28T12:59:52.328Z,5.55
2024-02-28T13:02:20.846Z,5.56
2024-02-28T13:04:47.330Z,5.57
2024-02-28T13:07:13.885Z,5.56
2024-02-28T13:09:40.548Z,5.57
2024-02-28T13:12:08.399Z,5.53
2024-02-28T13:14:35.202Z,5.54
2024-02-28T13:17:04.620Z,5.58
2024-02-28T13:19:32.186Z,5.61
2024-02-28T13:21:58.935Z,5.65
2024-02-28T13:24:25.528Z,5.69
2024-02-28T13:26:52.106Z,5.68
2024-02-28T13:29:18.941Z,5.66
2024-02-28T13:31:45.542Z,5.66
2024-02-28T13:34:12.118Z,5.65
2024-02-28T13:36:43.634Z,5.60
2024-02-28T13:39:12.921Z,5.63
2024-02-28T13:41:40.756Z,5.62
2024-02-28T13:44:07.390Z,5.61
2024-02-28T13:46:34.125Z,5.61
2024-02-28T13:49:00.636Z,5.59
2024-02-28T13:51:27.663Z,5.56
2024-02-28T13:53:55.306Z,5.55
2024-02-28T13:56:22.383Z,5.55
2024-02-28T13:58:53.335Z,5.54
2024-02-28T14:01:21.021Z,5.54
2024-02-28T14:03:47.682Z,5.53
2024-02-28T14:06:15.046Z,5.52
2024-02-28T14:08:43.561Z,5.50
2024-02-28T14:11:10.853Z,5.51
2024-02-28T14:13:38.933Z,5.49
2024-02-28T14:16:05.555Z,5.50
2024-02-28T14:18:32.102Z,5.46
2024-02-28T14:20:58.591Z,5.46
2024-02-28T14:23:25.072Z,5.45
2024-02-28T14:25:51.524Z,5.45
2024-02-28T14:28:20.210Z,5.44
2024-02-28T14:30:50.284Z,5.40
2024-02-28T14:33:17.219Z,5.41
2024-02-28T14:35:43.783Z,5.42
2024-02-28T14:38:10.628Z,5.35
2024-02-28T14:40:37.081Z,5.28
2024-02-28T14:43:03.631Z,5.26
2024-02-28T14:45:30.182Z,5.28
2024-02-28T14:47:56.978Z,5.27
2024-02-28T14:50:23.561Z,5.27
2024-02-28T14:52:50.047Z,5.26
2024-02-28T14:55:16.600Z,5.23
2024-02-28T14:57:43.845Z,5.22
2024-02-28T15:00:14.845Z,5.24
2024-02-28T15:02:42.029Z,5.21
2024-02-28T15:05:09.312Z,5.22
2024-02-28T15:07:36.876Z,5.21
2024-02-28T15:10:05.912Z,5.19
2024-02-28T15:12:34.122Z,5.12
2024-02-28T15:15:03.025Z,5.12
2024-02-28T15:17:29.907Z,5.14
2024-02-28T15:19:56.914Z,5.15
2024-02-28T15:22:23.987Z,5.16
2024-02-28T15:24:50.656Z,5.14
2024-02-28T15:27:17.147Z,5.15
2024-02-28T15:29:44.253Z,5.14
2024-02-28T15:32:10.847Z,5.11
2024-02-28T15:34:37.350Z,5.10
2024-02-28T15:37:03.941Z,5.11
2024-02-28T15:39:30.431Z,5.10
2024-02-28T15:41:57.255Z,5.09
2024-02-28T15:44:23.723Z,5.10
2024-02-28T15:46:50.189Z,5.11
2024-02-28T15:49:22.510Z,5.11
2024-02-28T15:51:55.030Z,5.11
2024-02-28T15:54:21.890Z,5.10
2024-02-28T15:56:48.339Z,5.10
2024-02-28T15:59:14.871Z,5.09
2024-02-28T16:01:41.596Z,5.09
2024-02-28T16:04:08.207Z,5.09
2024-02-28T16:06:39.814Z,5.10
2024-02-28T16:09:07.053Z,5.11
2024-02-28T16:11:34.708Z,5.09
2024-02-28T16:14:01.824Z,5.06
2024-02-28T16:16:28.407Z,5.03
2024-02-28T16:18:55.084Z,5.03
2024-02-28T16:21:22.047Z,5.02
2024-02-28T16:23:48.496Z,5.03
2024-02-28T16:26:15.775Z,5.06
2024-02-28T16:28:42.309Z,5.04
2024-02-28T16:31:09.135Z,5.05
2024-02-28T16:33:36.853Z,5.05
2024-02-28T16:36:05.175Z,5.04
2024-02-28T16:38:31.706Z,5.05
2024-02-28T16:40:58.179Z,5.06
2024-02-28T16:43:24.679Z,5.06
2024-02-28T16:45:51.185Z,5.06
2024-02-28T16:48:18.019Z,5.04
2024-02-28T16:50:44.557Z,5.03
2024-02-28T16:53:10.990Z,5.03
2024-02-28T16:55:37.444Z,5.05
2024-02-28T16:58:05.923Z,5.01
2024-02-28T17:00:32.604Z,4.98
2024-02-28T17:02:59.229Z,4.97
2024-02-28T17:05:26.331Z,4.94
2024-02-28T17:07:53.571Z,4.93
2024-02-28T17:10:20.096Z,4.93
2024-02-28T17:12:46.507Z,4.91
2024-02-28T17:15:12.920Z,4.89
2024-02-28T17:17:39.496Z,4.88
2024-02-28T17:20:08.232Z,4.84
2024-02-28T17:22:34.830Z,4.84
2024-02-28T17:25:01.643Z,4.82
2024-02-28T17:27:29.486Z,4.82
2024-02-28T17:29:56.183Z,4.81
2024-02-28T17:32:22.717Z,4.81
2024-02-28T17:34:53.415Z,4.82
2024-02-28T17:37:21.374Z,4.81
2024-02-28T17:39:51.946Z,4.82
2024-02-28T17:42:18.446Z,4.83
2024-02-28T17:44:44.845Z,4.81
2024-02-28T17:47:11.300Z,4.82
2024-02-28T17:49:38.485Z,4.81
2024-02-28T17:52:07.020Z,4.82
2024-02-28T17:54:33.790Z,4.83
2024-02-28T17:57:00.256Z,4.84
2024-02-28T17:59:26.713Z,4.82
2024-02-28T18:01:53.195Z,4.84
2024-02-28T18:04:19.802Z,4.82
2024-02-28T18:06:46.297Z,4.81
2024-02-28T18:09:12.759Z,4.80
2024-02-28T18:11:40.239Z,4.76
2024-02-28T18:14:08.073Z,4.74
2024-02-28T18:16:35.077Z,4.72
2024-02-28T18:19:01.610Z,4.71
2024-02-28T18:21:28.127Z,4.69
2024-02-28T18:23:55.787Z,4.68
2024-02-28T18:26:23.166Z,4.68
2024-02-28T18:28:50.229Z,4.68
2024-02-28T18:31:16.785Z,4.67
2024-02-28T18:33:43.910Z,4.67
2024-02-28T18:36:10.928Z,4.64
2024-02-28T18:38:37.787Z,4.63
2024-02-28T18:41:05.689Z,4.62
2024-02-28T18:43:32.347Z,4.64
2024-02-28T18:46:02.467Z,4.60
2024-02-28T18:48:29.060Z,4.57
2024-02-28T18:50:55.548Z,4.56
2024-02-28T18:53:22.170Z,4.59
2024-02-28T18:55:48.685Z,4.58
2024-02-28T18:58:15.129Z,4.58
2024-02-28T19:00:47.579Z,4.56
2024-02-28T19:03:14.444Z,4.57
2024-02-28T19:05:41.879Z,4.58
2024-02-28T19:08:08.413Z,4.56
2024-02-28T19:10:34.844Z,4.55
2024-02-28T19:13:01.389Z,4.54
2024-02-28T19:15:28.147Z,4.57
2024-02-28T19:17:54.615Z,4.55
2024-02-28T19:20:21.123Z,4.54
2024-02-28T19:22:48.114Z,4.55
2024-02-28T19:25:15.104Z,4.52
2024-02-28T19:27:42.011Z,4.50
2024-02-28T19:30:10.341Z,4.48
2024-02-28T19:32:38.904Z,4.46
2024-02-28T19:35:06.080Z,4.47
2024-02-28T19:37:32.605Z,4.44
2024-02-28T19:40:08.608Z,4.45
2024-02-28T19:42:36.889Z,4.45
2024-02-28T19:45:07.346Z,4.45
2024-02-28T19:47:34.304Z,4.45
2024-02-28T19:50:01.442Z,4.43
2024-02-28T19:52:28.466Z,4.44
2024-02-28T19:54:55.029Z,4.44
2024-02-28T19:57:21.620Z,4.44
2024-02-28T19:59:48.401Z,4.41
2024-02-28T20:02:14.991Z,4.41
2024-02-28T20:04:41.501Z,4.39
2024-02-28T20:07:08.588Z,4.39
2024-02-28T20:09:38.099Z,4.40
2024-02-28T20:12:08.239Z,4.40
2024-02-28T20:14:35.556Z,4.39
2024-02-28T20:17:08.349Z,4.39
2024-02-28T20:19:36.969Z,4.39
2024-02-28T20:22:04.379Z,4.37
2024-02-28T20:24:31.612Z,4.36
2024-02-28T20:26:58.383Z,4.37
2024-02-28T20:29:25.385Z,4.37
2024-02-28T20:31:51.840Z,4.37
2024-02-28T20:34:18.338Z,4.38
2024-02-28T20:36:45.506Z,4.40
2024-02-28T20:39:12.084Z,4.41
2024-02-28T20:41:40.095Z,4.41
2024-02-28T20:44:10.612Z,4.38
2024-02-28T20:46:40.753Z,4.39
2024-02-28T20:49:07.370Z,4.38
2024-02-28T20:51:34.015Z,4.38
2024-02-28T20:54:01.566Z,4.37
2024-02-28T20:56:28.319Z,4.36
2024-02-28T20:58:56.135Z,4.37
2024-02-28T21:01:25.424Z,4.36
2024-02-28T21:04:02.940Z,4.34
2024-02-28T21:06:31.139Z,4.33
2024-02-28T21:08:57.826Z,4.34
2024-02-28T21:11:24.632Z,4.33
2024-02-28T21:13:54.640Z,4.31
2024-02-28T21:16:22.550Z,4.30
2024-02-28T21:18:52.884Z,4.30
2024-02-28T21:21:20.184Z,4.31
2024-02-28T21:23:47.800Z,4.31
2024-02-28T21:26:14.846Z,4.32
2024-02-28T21:28:41.402Z,4.32
2024-02-28T21:31:08.051Z,4.31
2024-02-28T21:33:34.741Z,4.30
2024-02-28T21:36:01.870Z,4.30
2024-02-28T21:38:28.330Z,4.29
2024-02-28T21:40:54.769Z,4.27
2024-02-28T21:43:21.427Z,4.26
2024-02-28T21:45:47.932Z,4.26
2024-02-28T21:48:15.795Z,4.26
2024-02-28T21:50:43.734Z,4.24
2024-02-28T21:53:10.376Z,4.26
2024-02-28T21:55:37.081Z,4.25
2024-02-28T21:58:03.908Z,4.26
2024-02-28T22:00:30.827Z,4.26
2024-02-28T22:02:57.430Z,4.25
2024-02-28T22:05:25.069Z,4.25
2024-02-28T22:07:51.789Z,4.25
2024-02-28T22:10:18.370Z,4.27
2024-02-28T22:12:45.259Z,4.27
2024-02-28T22:15:11.955Z,4.27
2024-02-28T22:17:38.440Z,4.26
2024-02-28T22:20:05.887Z,4.26
2024-02-28T22:22:32.360Z,4.24
2024-02-28T22:24:58.814Z,4.22
2024-02-28T22:27:25.318Z,4.20
2024-02-28T22:29:51.736Z,4.20
2024-02-28T22:32:18.187Z,4.19
2024-02-28T22:34:44.709Z,4.18
2024-02-28T22:37:11.161Z,4.18
2024-02-28T22:39:37.797Z,4.17
2024-02-28T22:42:05.252Z,4.17
2024-02-28T22:44:32.085Z,4.16
2024-02-28T22:46:58.520Z,4.15
2024-02-28T22:49:24.984Z,4.14
2024-02-28T22:51:51.529Z,4.15
2024-02-28T22:54:23.846Z,4.15
2024-02-28T22:56:50.499Z,4.16
2024-02-28T22:59:18.039Z,4.15
2024-02-28T23:01:45.519Z,4.15
2024-02-28T23:04:12.243Z,4.15
2024-02-28T23:06:40.450Z,4.14
2024-02-28T23:09:07.021Z,4.13
2024-02-28T23:11:33.594Z,4.14
2024-02-28T23:14:00.207Z,4.14
2024-02-28T23:16:27.396Z,4.15
2024-02-28T23:18:53.973Z,4.13
2024-02-28T23:21:20.432Z,4.13
2024-02-28T23:23:46.880Z,4.11
2024-02-28T23:26:13.355Z,4.12
2024-02-28T23:28:40.257Z,4.12
2024-02-28T23:31:06.823Z,4.11
2024-02-28T23:33:33.341Z,4.11
2024-02-28T23:36:00.778Z,4.10
2024-02-28T23:38:27.725Z,4.08
2024-02-28T23:40:54.164Z,4.08
2024-02-28T23:43:20.770Z,4.09
2024-02-28T23:45:47.388Z,4.08
2024-02-28T23:48:13.925Z,4.08
2024-02-28T23:50:40.462Z,4.08
2024-02-28T23:53:09.159Z,4.09
2024-02-28T23:55:35.804Z,4.09
2024-02-28T23:58:02.546Z,4.08
